sensor_id;sensor_type;location;lat;lon;timestamp;temperature;humidity
871;DHT22;422;51.280;7.236;2022-07-10T00:00:55;13.50;99.90
871;DHT22;422;51.280;7.236;2022-07-10T00:03:24;13.40;99.90
871;DHT22;422;51.280;7.236;2022-07-10T00:05:51;13.30;99.90
871;DHT22;422;51.280;7.236;2022-07-10T00:08:19;13.20;99.90
871;DHT22;422;51.280;7.236;2022-07-10T00:10:53;13.20;99.90
871;DHT22;422;51.280;7.236;2022-07-10T00:13:21;13.20;99.90
871;DHT22;422;51.280;7.236;2022-07-10T00:15:48;13.20;99.90
871;DHT22;422;51.280;7.236;2022-07-10T00:18:15;13.30;99.90
871;DHT22;422;51.280;7.236;2022-07-10T00:20:42;13.20;99.90
871;DHT22;422;51.280;7.236;2022-07-10T00:23:10;13.20;99.90
871;DHT22;422;51.280;7.236;2022-07-10T00:25:40;13.30;99.90
871;DHT22;422;51.280;7.236;2022-07-10T00:28:09;13.30;99.90
871;DHT22;422;51.280;7.236;2022-07-10T00:30:37;13.20;99.90
871;DHT22;422;51.280;7.236;2022-07-10T00:33:10;13.30;99.90
871;DHT22;422;51.280;7.236;2022-07-10T00:35:38;13.20;99.90
871;DHT22;422;51.280;7.236;2022-07-10T00:38:06;13.20;99.90
871;DHT22;422;51.280;7.236;2022-07-10T00:40:33;13.10;99.90
871;DHT22;422;51.280;7.236;2022-07-10T00:43:15;13.00;99.90
871;DHT22;422;51.280;7.236;2022-07-10T00:45:43;13.10;99.90
871;DHT22;422;51.280;7.236;2022-07-10T00:48:10;13.00;99.90
871;DHT22;422;51.280;7.236;2022-07-10T00:50:38;13.10;99.90
871;DHT22;422;51.280;7.236;2022-07-10T00:53:07;13.10;99.90
871;DHT22;422;51.280;7.236;2022-07-10T00:55:36;13.10;99.90
871;DHT22;422;51.280;7.236;2022-07-10T00:58:07;13.10;99.90
871;DHT22;422;51.280;7.236;2022-07-10T01:00:36;13.10;99.90
871;DHT22;422;51.280;7.236;2022-07-10T01:03:04;13.20;99.90
871;DHT22;422;51.280;7.236;2022-07-10T01:05:31;13.20;99.90
871;DHT22;422;51.280;7.236;2022-07-10T01:08:02;13.10;99.90
871;DHT22;422;51.280;7.236;2022-07-10T01:10:31;13.20;99.90
871;DHT22;422;51.280;7.236;2022-07-10T01:13:01;13.20;99.90
871;DHT22;422;51.280;7.236;2022-07-10T01:15:29;13.30;99.90
871;DHT22;422;51.280;7.236;2022-07-10T01:18:03;13.30;99.90
871;DHT22;422;51.280;7.236;2022-07-10T01:20:31;13.30;99.90
871;DHT22;422;51.280;7.236;2022-07-10T01:23:02;13.30;99.90
871;DHT22;422;51.280;7.236;2022-07-10T01:25:30;13.40;99.90
871;DHT22;422;51.280;7.236;2022-07-10T01:27:57;13.40;99.90
871;DHT22;422;51.280;7.236;2022-07-10T01:30:24;13.30;99.90
871;DHT22;422;51.280;7.236;2022-07-10T01:32:52;13.40;99.90
871;DHT22;422;51.280;7.236;2022-07-10T01:35:19;13.40;99.90
871;DHT22;422;51.280;7.236;2022-07-10T01:37:46;13.50;99.90
871;DHT22;422;51.280;7.236;2022-07-10T01:40:19;13.50;99.90
871;DHT22;422;51.280;7.236;2022-07-10T01:42:46;13.50;99.90
871;DHT22;422;51.280;7.236;2022-07-10T01:45:17;13.50;99.90
871;DHT22;422;51.280;7.236;2022-07-10T01:47:45;13.40;99.90
871;DHT22;422;51.280;7.236;2022-07-10T01:50:12;13.50;99.90
871;DHT22;422;51.280;7.236;2022-07-10T01:52:39;13.60;99.90
871;DHT22;422;51.280;7.236;2022-07-10T01:55:08;13.50;99.90
871;DHT22;422;51.280;7.236;2022-07-10T01:57:37;13.50;99.90
871;DHT22;422;51.280;7.236;2022-07-10T02:00:07;13.50;99.90
871;DHT22;422;51.280;7.236;2022-07-10T02:02:35;13.60;99.90
871;DHT22;422;51.280;7.236;2022-07-10T02:05:02;13.60;99.90
871;DHT22;422;51.280;7.236;2022-07-10T02:07:28;13.60;99.90
871;DHT22;422;51.280;7.236;2022-07-10T02:09:58;13.50;99.90
871;DHT22;422;51.280;7.236;2022-07-10T02:12:25;13.50;99.90
871;DHT22;422;51.280;7.236;2022-07-10T02:14:55;13.50;99.90
871;DHT22;422;51.280;7.236;2022-07-10T02:17:25;13.50;99.90
871;DHT22;422;51.280;7.236;2022-07-10T02:19:53;13.70;99.90
871;DHT22;422;51.280;7.236;2022-07-10T02:22:20;13.50;99.90
871;DHT22;422;51.280;7.236;2022-07-10T02:24:47;13.50;99.90
871;DHT22;422;51.280;7.236;2022-07-10T02:27:14;13.40;99.90
871;DHT22;422;51.280;7.236;2022-07-10T02:29:41;13.50;99.90
871;DHT22;422;51.280;7.236;2022-07-10T02:32:10;13.50;99.90
871;DHT22;422;51.280;7.236;2022-07-10T02:34:38;13.40;99.90
871;DHT22;422;51.280;7.236;2022-07-10T02:37:05;13.30;99.90
871;DHT22;422;51.280;7.236;2022-07-10T02:39:32;13.20;99.90
871;DHT22;422;51.280;7.236;2022-07-10T02:41:59;13.30;99.90
871;DHT22;422;51.280;7.236;2022-07-10T02:44:28;13.20;99.90
871;DHT22;422;51.280;7.236;2022-07-10T02:46:55;13.20;99.90
871;DHT22;422;51.280;7.236;2022-07-10T02:49:24;13.10;99.90
871;DHT22;422;51.280;7.236;2022-07-10T02:51:52;13.10;99.90
871;DHT22;422;51.280;7.236;2022-07-10T02:54:21;13.10;99.90
871;DHT22;422;51.280;7.236;2022-07-10T02:56:49;13.10;99.90
871;DHT22;422;51.280;7.236;2022-07-10T02:59:16;13.10;99.90
871;DHT22;422;51.280;7.236;2022-07-10T03:01:44;13.10;99.90
871;DHT22;422;51.280;7.236;2022-07-10T03:04:13;13.00;99.90
871;DHT22;422;51.280;7.236;2022-07-10T03:06:41;13.00;99.90
871;DHT22;422;51.280;7.236;2022-07-10T03:09:12;13.00;99.90
871;DHT22;422;51.280;7.236;2022-07-10T03:11:39;13.00;99.90
871;DHT22;422;51.280;7.236;2022-07-10T03:14:06;12.90;99.90
871;DHT22;422;51.280;7.236;2022-07-10T03:16:34;12.80;99.90
871;DHT22;422;51.280;7.236;2022-07-10T03:19:01;12.80;99.90
871;DHT22;422;51.280;7.236;2022-07-10T03:21:28;12.80;99.90
871;DHT22;422;51.280;7.236;2022-07-10T03:24:05;12.80;99.90
871;DHT22;422;51.280;7.236;2022-07-10T03:26:32;12.80;99.90
871;DHT22;422;51.280;7.236;2022-07-10T03:28:59;12.80;99.90
871;DHT22;422;51.280;7.236;2022-07-10T03:31:27;12.90;99.90
871;DHT22;422;51.280;7.236;2022-07-10T03:33:55;12.90;99.90
871;DHT22;422;51.280;7.236;2022-07-10T03:36:24;12.90;99.90
871;DHT22;422;51.280;7.236;2022-07-10T03:38:52;12.90;99.90
871;DHT22;422;51.280;7.236;2022-07-10T03:41:21;13.00;99.90
871;DHT22;422;51.280;7.236;2022-07-10T03:43:51;13.10;99.90
871;DHT22;422;51.280;7.236;2022-07-10T03:46:18;13.00;99.90
871;DHT22;422;51.280;7.236;2022-07-10T03:48:45;13.00;99.90
871;DHT22;422;51.280;7.236;2022-07-10T03:51:14;13.10;99.90
871;DHT22;422;51.280;7.236;2022-07-10T03:53:41;13.10;99.90
871;DHT22;422;51.280;7.236;2022-07-10T03:56:13;13.20;99.90
871;DHT22;422;51.280;7.236;2022-07-10T03:59:02;13.30;99.90
871;DHT22;422;51.280;7.236;2022-07-10T04:01:28;13.20;99.90
871;DHT22;422;51.280;7.236;2022-07-10T04:03:55;13.10;99.90
871;DHT22;422;51.280;7.236;2022-07-10T04:06:25;13.20;99.90
871;DHT22;422;51.280;7.236;2022-07-10T04:08:54;13.20;99.90
871;DHT22;422;51.280;7.236;2022-07-10T04:11:23;13.30;99.90
871;DHT22;422;51.280;7.236;2022-07-10T04:13:50;13.30;99.90
871;DHT22;422;51.280;7.236;2022-07-10T04:16:18;13.20;99.90
871;DHT22;422;51.280;7.236;2022-07-10T04:18:48;13.20;99.90
871;DHT22;422;51.280;7.236;2022-07-10T04:21:16;13.20;99.90
871;DHT22;422;51.280;7.236;2022-07-10T04:23:45;13.30;99.90
871;DHT22;422;51.280;7.236;2022-07-10T04:26:13;13.30;99.90
871;DHT22;422;51.280;7.236;2022-07-10T04:28:42;13.40;99.90
871;DHT22;422;51.280;7.236;2022-07-10T04:31:09;13.30;99.90
871;DHT22;422;51.280;7.236;2022-07-10T04:33:38;13.30;99.90
871;DHT22;422;51.280;7.236;2022-07-10T04:36:06;13.40;99.90
871;DHT22;422;51.280;7.236;2022-07-10T04:38:33;13.40;99.90
871;DHT22;422;51.280;7.236;2022-07-10T04:41:01;13.40;99.90
871;DHT22;422;51.280;7.236;2022-07-10T04:43:30;13.40;99.90
871;DHT22;422;51.280;7.236;2022-07-10T04:45:59;13.30;99.90
871;DHT22;422;51.280;7.236;2022-07-10T04:48:29;13.30;99.90
871;DHT22;422;51.280;7.236;2022-07-10T04:50:57;13.40;99.90
871;DHT22;422;51.280;7.236;2022-07-10T04:53:25;13.50;99.90
871;DHT22;422;51.280;7.236;2022-07-10T04:55:52;13.60;99.90
871;DHT22;422;51.280;7.236;2022-07-10T04:58:21;13.50;99.90
871;DHT22;422;51.280;7.236;2022-07-10T05:00:48;13.60;99.90
871;DHT22;422;51.280;7.236;2022-07-10T05:03:21;13.60;99.90
871;DHT22;422;51.280;7.236;2022-07-10T05:05:49;13.80;99.90
871;DHT22;422;51.280;7.236;2022-07-10T05:08:18;13.70;99.90
871;DHT22;422;51.280;7.236;2022-07-10T05:10:45;13.80;99.90
871;DHT22;422;51.280;7.236;2022-07-10T05:13:13;14.00;99.90
871;DHT22;422;51.280;7.236;2022-07-10T05:15:40;14.10;99.90
871;DHT22;422;51.280;7.236;2022-07-10T05:18:07;13.90;99.90
871;DHT22;422;51.280;7.236;2022-07-10T05:20:35;13.70;99.90
871;DHT22;422;51.280;7.236;2022-07-10T05:23:07;13.70;99.90
871;DHT22;422;51.280;7.236;2022-07-10T05:25:36;13.80;99.90
871;DHT22;422;51.280;7.236;2022-07-10T05:28:05;13.90;99.90
871;DHT22;422;51.280;7.236;2022-07-10T05:30:32;14.00;99.90
871;DHT22;422;51.280;7.236;2022-07-10T05:33:00;14.10;99.90
871;DHT22;422;51.280;7.236;2022-07-10T05:35:28;14.30;99.90
871;DHT22;422;51.280;7.236;2022-07-10T05:37:55;13.90;99.90
871;DHT22;422;51.280;7.236;2022-07-10T05:40:23;13.90;99.90
871;DHT22;422;51.280;7.236;2022-07-10T05:42:51;14.20;99.90
871;DHT22;422;51.280;7.236;2022-07-10T05:45:22;14.20;99.90
871;DHT22;422;51.280;7.236;2022-07-10T05:47:49;14.30;99.90
871;DHT22;422;51.280;7.236;2022-07-10T05:50:16;14.40;99.90
871;DHT22;422;51.280;7.236;2022-07-10T05:52:44;14.20;99.90
871;DHT22;422;51.280;7.236;2022-07-10T05:55:11;14.20;99.90
871;DHT22;422;51.280;7.236;2022-07-10T05:57:42;14.20;99.90
871;DHT22;422;51.280;7.236;2022-07-10T06:00:14;14.30;99.90
871;DHT22;422;51.280;7.236;2022-07-10T06:02:41;14.50;99.90
871;DHT22;422;51.280;7.236;2022-07-10T06:05:09;14.50;99.90
871;DHT22;422;51.280;7.236;2022-07-10T06:07:37;14.40;99.90
871;DHT22;422;51.280;7.236;2022-07-10T06:10:05;14.40;99.90
871;DHT22;422;51.280;7.236;2022-07-10T06:12:36;14.50;99.90
871;DHT22;422;51.280;7.236;2022-07-10T06:15:04;14.50;99.90
871;DHT22;422;51.280;7.236;2022-07-10T06:17:34;14.60;99.90
871;DHT22;422;51.280;7.236;2022-07-10T06:20:03;14.50;99.90
871;DHT22;422;51.280;7.236;2022-07-10T06:22:32;14.40;99.90
871;DHT22;422;51.280;7.236;2022-07-10T06:25:02;14.50;99.90
871;DHT22;422;51.280;7.236;2022-07-10T06:27:30;14.70;99.90
871;DHT22;422;51.280;7.236;2022-07-10T06:29:59;14.80;99.90
871;DHT22;422;51.280;7.236;2022-07-10T06:32:29;14.80;99.90
871;DHT22;422;51.280;7.236;2022-07-10T06:35:03;15.10;99.90
871;DHT22;422;51.280;7.236;2022-07-10T06:37:33;15.30;99.90
871;DHT22;422;51.280;7.236;2022-07-10T06:40:00;15.60;99.90
871;DHT22;422;51.280;7.236;2022-07-10T06:42:28;16.00;99.90
871;DHT22;422;51.280;7.236;2022-07-10T06:44:55;15.60;99.90
871;DHT22;422;51.280;7.236;2022-07-10T06:47:22;15.30;99.90
871;DHT22;422;51.280;7.236;2022-07-10T06:50:09;15.60;99.90
871;DHT22;422;51.280;7.236;2022-07-10T06:52:39;15.70;99.90
871;DHT22;422;51.280;7.236;2022-07-10T06:55:09;16.00;99.90
871;DHT22;422;51.280;7.236;2022-07-10T06:57:46;16.00;99.90
871;DHT22;422;51.280;7.236;2022-07-10T07:00:26;15.70;99.90
871;DHT22;422;51.280;7.236;2022-07-10T07:02:56;15.90;99.90
871;DHT22;422;51.280;7.236;2022-07-10T07:05:29;16.30;99.90
871;DHT22;422;51.280;7.236;2022-07-10T07:07:56;15.90;99.90
871;DHT22;422;51.280;7.236;2022-07-10T07:10:27;15.60;99.90
871;DHT22;422;51.280;7.236;2022-07-10T07:12:55;15.40;99.90
871;DHT22;422;51.280;7.236;2022-07-10T07:15:25;15.20;99.90
871;DHT22;422;51.280;7.236;2022-07-10T07:17:56;15.00;99.90
871;DHT22;422;51.280;7.236;2022-07-10T07:20:35;14.80;99.90
871;DHT22;422;51.280;7.236;2022-07-10T07:23:21;14.90;99.90
871;DHT22;422;51.280;7.236;2022-07-10T07:25:52;14.90;99.90
871;DHT22;422;51.280;7.236;2022-07-10T07:28:24;15.00;99.90
871;DHT22;422;51.280;7.236;2022-07-10T07:30:51;14.90;99.90
871;DHT22;422;51.280;7.236;2022-07-10T07:33:18;15.00;99.90
871;DHT22;422;51.280;7.236;2022-07-10T07:35:49;15.20;99.90
871;DHT22;422;51.280;7.236;2022-07-10T07:38:18;15.10;99.90
871;DHT22;422;51.280;7.236;2022-07-10T07:40:48;15.30;99.90
871;DHT22;422;51.280;7.236;2022-07-10T07:43:19;15.40;99.90
871;DHT22;422;51.280;7.236;2022-07-10T07:45:53;15.40;99.90
871;DHT22;422;51.280;7.236;2022-07-10T07:48:24;15.10;99.90
871;DHT22;422;51.280;7.236;2022-07-10T07:50:53;15.10;99.90
871;DHT22;422;51.280;7.236;2022-07-10T07:53:23;15.00;99.90
871;DHT22;422;51.280;7.236;2022-07-10T07:55:50;14.70;99.90
871;DHT22;422;51.280;7.236;2022-07-10T07:58:22;14.60;99.90
871;DHT22;422;51.280;7.236;2022-07-10T08:00:51;14.40;99.90
871;DHT22;422;51.280;7.236;2022-07-10T08:03:19;14.40;99.90
871;DHT22;422;51.280;7.236;2022-07-10T08:05:47;14.80;99.90
871;DHT22;422;51.280;7.236;2022-07-10T08:08:17;15.00;99.90
871;DHT22;422;51.280;7.236;2022-07-10T08:10:44;14.90;99.90
871;DHT22;422;51.280;7.236;2022-07-10T08:13:12;14.50;99.90
871;DHT22;422;51.280;7.236;2022-07-10T08:15:39;14.60;99.90
871;DHT22;422;51.280;7.236;2022-07-10T08:18:06;14.50;99.90
871;DHT22;422;51.280;7.236;2022-07-10T08:20:36;14.70;99.90
871;DHT22;422;51.280;7.236;2022-07-10T08:23:06;14.80;99.90
871;DHT22;422;51.280;7.236;2022-07-10T08:25:40;14.80;99.90
871;DHT22;422;51.280;7.236;2022-07-10T08:28:07;14.70;99.90
871;DHT22;422;51.280;7.236;2022-07-10T08:30:38;14.30;99.90
871;DHT22;422;51.280;7.236;2022-07-10T08:33:08;14.40;99.90
871;DHT22;422;51.280;7.236;2022-07-10T08:35:35;14.70;99.90
871;DHT22;422;51.280;7.236;2022-07-10T08:38:02;14.80;99.90
871;DHT22;422;51.280;7.236;2022-07-10T08:40:35;15.00;99.90
871;DHT22;422;51.280;7.236;2022-07-10T08:43:10;14.90;99.90
871;DHT22;422;51.280;7.236;2022-07-10T08:45:41;14.90;99.90
871;DHT22;422;51.280;7.236;2022-07-10T08:48:12;14.80;99.90
871;DHT22;422;51.280;7.236;2022-07-10T08:50:45;14.40;99.90
871;DHT22;422;51.280;7.236;2022-07-10T08:53:24;14.60;99.90
871;DHT22;422;51.280;7.236;2022-07-10T08:55:54;14.70;99.90
871;DHT22;422;51.280;7.236;2022-07-10T08:58:31;14.60;99.90
871;DHT22;422;51.280;7.236;2022-07-10T09:00:59;14.50;99.90
871;DHT22;422;51.280;7.236;2022-07-10T09:03:27;14.50;99.90
871;DHT22;422;51.280;7.236;2022-07-10T09:05:58;14.60;99.90
871;DHT22;422;51.280;7.236;2022-07-10T09:08:26;14.60;99.90
871;DHT22;422;51.280;7.236;2022-07-10T09:11:15;14.70;99.90
871;DHT22;422;51.280;7.236;2022-07-10T09:13:58;15.00;99.90
871;DHT22;422;51.280;7.236;2022-07-10T09:16:28;15.20;99.90
871;DHT22;422;51.280;7.236;2022-07-10T09:18:56;15.20;99.90
871;DHT22;422;51.280;7.236;2022-07-10T09:21:32;15.10;99.90
871;DHT22;422;51.280;7.236;2022-07-10T09:24:04;14.90;1.00
871;DHT22;422;51.280;7.236;2022-07-10T09:26:35;14.40;1.00
871;DHT22;422;51.280;7.236;2022-07-10T09:29:08;14.60;1.00
871;DHT22;422;51.280;7.236;2022-07-10T09:31:52;14.70;1.00
871;DHT22;422;51.280;7.236;2022-07-10T09:34:35;14.70;1.00
871;DHT22;422;51.280;7.236;2022-07-10T09:37:23;14.70;1.00
871;DHT22;422;51.280;7.236;2022-07-10T09:39:58;15.10;1.00
871;DHT22;422;51.280;7.236;2022-07-10T09:42:27;15.50;1.00
871;DHT22;422;51.280;7.236;2022-07-10T09:45:18;15.50;1.00
871;DHT22;422;51.280;7.236;2022-07-10T09:47:54;15.30;99.90
871;DHT22;422;51.280;7.236;2022-07-10T09:50:29;15.00;1.00
871;DHT22;422;51.280;7.236;2022-07-10T09:53:03;15.00;1.00
871;DHT22;422;51.280;7.236;2022-07-10T09:55:32;15.10;1.00
871;DHT22;422;51.280;7.236;2022-07-10T09:58:02;15.00;1.00
871;DHT22;422;51.280;7.236;2022-07-10T10:00:32;15.20;1.00
871;DHT22;422;51.280;7.236;2022-07-10T10:03:04;15.40;1.00
871;DHT22;422;51.280;7.236;2022-07-10T10:05:39;15.30;1.00
871;DHT22;422;51.280;7.236;2022-07-10T10:08:16;15.50;1.00
871;DHT22;422;51.280;7.236;2022-07-10T10:10:45;15.50;1.00
871;DHT22;422;51.280;7.236;2022-07-10T10:13:17;15.70;1.00
871;DHT22;422;51.280;7.236;2022-07-10T10:15:49;15.60;1.00
871;DHT22;422;51.280;7.236;2022-07-10T10:18:23;15.70;1.00
871;DHT22;422;51.280;7.236;2022-07-10T10:20:55;15.70;1.00
871;DHT22;422;51.280;7.236;2022-07-10T10:23:23;15.50;1.00
871;DHT22;422;51.280;7.236;2022-07-10T10:25:56;15.70;1.00
871;DHT22;422;51.280;7.236;2022-07-10T10:28:25;15.70;1.00
871;DHT22;422;51.280;7.236;2022-07-10T10:30:59;15.20;1.00
871;DHT22;422;51.280;7.236;2022-07-10T10:33:53;15.20;1.00
871;DHT22;422;51.280;7.236;2022-07-10T10:36:44;15.30;1.00
871;DHT22;422;51.280;7.236;2022-07-10T10:39:14;15.10;1.00
871;DHT22;422;51.280;7.236;2022-07-10T10:41:46;15.30;1.00
871;DHT22;422;51.280;7.236;2022-07-10T10:44:26;15.50;1.00
871;DHT22;422;51.280;7.236;2022-07-10T10:47:07;15.80;1.00
871;DHT22;422;51.280;7.236;2022-07-10T10:49:55;15.30;1.00
871;DHT22;422;51.280;7.236;2022-07-10T10:52:30;15.40;1.00
871;DHT22;422;51.280;7.236;2022-07-10T10:55:05;15.40;1.00
871;DHT22;422;51.280;7.236;2022-07-10T10:57:37;15.50;1.00
871;DHT22;422;51.280;7.236;2022-07-10T11:00:07;15.40;1.00
871;DHT22;422;51.280;7.236;2022-07-10T11:02:42;15.30;1.00
871;DHT22;422;51.280;7.236;2022-07-10T11:05:40;15.20;1.00
871;DHT22;422;51.280;7.236;2022-07-10T11:08:12;15.40;1.00
871;DHT22;422;51.280;7.236;2022-07-10T11:10:41;15.10;1.00
871;DHT22;422;51.280;7.236;2022-07-10T11:13:27;15.20;1.00
871;DHT22;422;51.280;7.236;2022-07-10T11:15:55;15.30;1.00
871;DHT22;422;51.280;7.236;2022-07-10T11:18:29;15.40;1.00
871;DHT22;422;51.280;7.236;2022-07-10T11:21:02;15.70;1.00
871;DHT22;422;51.280;7.236;2022-07-10T11:23:56;15.90;1.00
871;DHT22;422;51.280;7.236;2022-07-10T11:26:28;16.20;1.00
871;DHT22;422;51.280;7.236;2022-07-10T11:29:03;16.60;1.00
871;DHT22;422;51.280;7.236;2022-07-10T11:31:31;16.80;1.00
871;DHT22;422;51.280;7.236;2022-07-10T11:34:06;17.00;1.00
871;DHT22;422;51.280;7.236;2022-07-10T11:36:34;17.20;99.90
871;DHT22;422;51.280;7.236;2022-07-10T11:39:03;17.20;99.90
871;DHT22;422;51.280;7.236;2022-07-10T11:41:31;16.80;99.90
871;DHT22;422;51.280;7.236;2022-07-10T11:44:03;16.90;99.90
871;DHT22;422;51.280;7.236;2022-07-10T11:46:37;16.80;99.90
871;DHT22;422;51.280;7.236;2022-07-10T11:49:15;16.60;1.00
871;DHT22;422;51.280;7.236;2022-07-10T11:51:44;16.70;1.00
871;DHT22;422;51.280;7.236;2022-07-10T11:54:12;16.80;1.00
871;DHT22;422;51.280;7.236;2022-07-10T11:56:46;16.30;1.00
871;DHT22;422;51.280;7.236;2022-07-10T11:59:14;16.40;1.00
871;DHT22;422;51.280;7.236;2022-07-10T12:01:43;16.60;1.00
871;DHT22;422;51.280;7.236;2022-07-10T12:04:18;16.80;1.00
871;DHT22;422;51.280;7.236;2022-07-10T12:06:48;17.00;1.00
871;DHT22;422;51.280;7.236;2022-07-10T12:09:19;17.10;1.00
871;DHT22;422;51.280;7.236;2022-07-10T12:12:02;16.80;1.00
871;DHT22;422;51.280;7.236;2022-07-10T12:14:33;17.00;1.00
871;DHT22;422;51.280;7.236;2022-07-10T12:17:11;17.20;1.00
871;DHT22;422;51.280;7.236;2022-07-10T12:19:43;17.10;1.00
871;DHT22;422;51.280;7.236;2022-07-10T12:22:19;17.30;1.00
871;DHT22;422;51.280;7.236;2022-07-10T12:24:46;17.40;1.00
871;DHT22;422;51.280;7.236;2022-07-10T12:27:38;17.30;1.00
871;DHT22;422;51.280;7.236;2022-07-10T12:30:06;17.50;1.00
871;DHT22;422;51.280;7.236;2022-07-10T12:32:36;17.40;1.00
871;DHT22;422;51.280;7.236;2022-07-10T12:35:06;17.30;1.00
871;DHT22;422;51.280;7.236;2022-07-10T12:37:47;17.40;1.00
871;DHT22;422;51.280;7.236;2022-07-10T12:40:49;17.20;1.00
871;DHT22;422;51.280;7.236;2022-07-10T12:43:28;16.90;1.00
871;DHT22;422;51.280;7.236;2022-07-10T12:46:10;16.70;1.00
871;DHT22;422;51.280;7.236;2022-07-10T12:48:39;16.80;1.00
871;DHT22;422;51.280;7.236;2022-07-10T12:51:27;17.20;1.00
871;DHT22;422;51.280;7.236;2022-07-10T12:53:58;16.70;1.00
871;DHT22;422;51.280;7.236;2022-07-10T12:56:35;16.70;1.00
871;DHT22;422;51.280;7.236;2022-07-10T12:59:12;16.90;1.00
871;DHT22;422;51.280;7.236;2022-07-10T13:01:41;17.00;1.00
871;DHT22;422;51.280;7.236;2022-07-10T13:04:10;17.40;1.00
871;DHT22;422;51.280;7.236;2022-07-10T13:06:39;18.30;1.00
871;DHT22;422;51.280;7.236;2022-07-10T13:09:27;18.30;1.00
871;DHT22;422;51.280;7.236;2022-07-10T13:11:56;18.20;1.00
871;DHT22;422;51.280;7.236;2022-07-10T13:14:23;17.70;1.00
871;DHT22;422;51.280;7.236;2022-07-10T13:16:55;17.00;1.00
871;DHT22;422;51.280;7.236;2022-07-10T13:19:25;16.60;1.00
871;DHT22;422;51.280;7.236;2022-07-10T13:21:57;16.50;1.00
871;DHT22;422;51.280;7.236;2022-07-10T13:24:28;16.40;1.00
871;DHT22;422;51.280;7.236;2022-07-10T13:26:55;16.30;1.00
871;DHT22;422;51.280;7.236;2022-07-10T13:29:22;16.50;1.00
871;DHT22;422;51.280;7.236;2022-07-10T13:31:50;16.80;1.00
871;DHT22;422;51.280;7.236;2022-07-10T13:34:20;17.20;1.00
871;DHT22;422;51.280;7.236;2022-07-10T13:36:53;17.50;1.00
871;DHT22;422;51.280;7.236;2022-07-10T13:39:23;17.80;1.00
871;DHT22;422;51.280;7.236;2022-07-10T13:41:52;17.80;1.00
871;DHT22;422;51.280;7.236;2022-07-10T13:44:20;18.70;1.00
871;DHT22;422;51.280;7.236;2022-07-10T13:46:48;19.10;1.00
871;DHT22;422;51.280;7.236;2022-07-10T13:49:16;19.80;99.90
871;DHT22;422;51.280;7.236;2022-07-10T13:51:43;20.10;99.90
871;DHT22;422;51.280;7.236;2022-07-10T13:54:10;20.00;99.90
871;DHT22;422;51.280;7.236;2022-07-10T13:56:39;19.50;99.90
871;DHT22;422;51.280;7.236;2022-07-10T13:59:09;19.00;99.90
871;DHT22;422;51.280;7.236;2022-07-10T14:01:36;18.40;99.90
871;DHT22;422;51.280;7.236;2022-07-10T14:04:06;18.30;99.90
871;DHT22;422;51.280;7.236;2022-07-10T14:06:36;17.50;99.90
871;DHT22;422;51.280;7.236;2022-07-10T14:09:06;17.40;99.90
871;DHT22;422;51.280;7.236;2022-07-10T14:11:34;17.20;99.90
871;DHT22;422;51.280;7.236;2022-07-10T14:14:03;17.20;99.90
871;DHT22;422;51.280;7.236;2022-07-10T14:16:42;17.30;1.00
871;DHT22;422;51.280;7.236;2022-07-10T14:19:15;17.30;1.00
871;DHT22;422;51.280;7.236;2022-07-10T14:21:43;17.40;1.00
871;DHT22;422;51.280;7.236;2022-07-10T14:24:10;17.90;99.90
871;DHT22;422;51.280;7.236;2022-07-10T14:26:38;18.10;99.90
871;DHT22;422;51.280;7.236;2022-07-10T14:29:11;18.40;99.90
871;DHT22;422;51.280;7.236;2022-07-10T14:31:38;18.50;99.90
871;DHT22;422;51.280;7.236;2022-07-10T14:34:06;18.60;99.90
871;DHT22;422;51.280;7.236;2022-07-10T14:36:33;18.30;99.90
871;DHT22;422;51.280;7.236;2022-07-10T14:39:00;18.40;99.90
871;DHT22;422;51.280;7.236;2022-07-10T14:41:30;18.30;99.90
871;DHT22;422;51.280;7.236;2022-07-10T14:44:03;18.50;99.90
871;DHT22;422;51.280;7.236;2022-07-10T14:46:38;18.50;99.90
871;DHT22;422;51.280;7.236;2022-07-10T14:49:08;18.60;99.90
871;DHT22;422;51.280;7.236;2022-07-10T14:51:36;18.50;99.90
871;DHT22;422;51.280;7.236;2022-07-10T14:54:06;18.40;99.90
871;DHT22;422;51.280;7.236;2022-07-10T14:56:34;18.50;99.90
871;DHT22;422;51.280;7.236;2022-07-10T14:59:01;18.40;99.90
871;DHT22;422;51.280;7.236;2022-07-10T15:01:32;18.20;99.90
871;DHT22;422;51.280;7.236;2022-07-10T15:04:09;18.30;99.90
871;DHT22;422;51.280;7.236;2022-07-10T15:06:37;17.90;99.90
871;DHT22;422;51.280;7.236;2022-07-10T15:09:06;17.80;99.90
871;DHT22;422;51.280;7.236;2022-07-10T15:11:33;17.70;99.90
871;DHT22;422;51.280;7.236;2022-07-10T15:14:01;17.70;99.90
871;DHT22;422;51.280;7.236;2022-07-10T15:16:37;17.60;99.90
871;DHT22;422;51.280;7.236;2022-07-10T15:19:04;17.40;99.90
871;DHT22;422;51.280;7.236;2022-07-10T15:21:36;17.00;1.00
871;DHT22;422;51.280;7.236;2022-07-10T15:24:04;16.80;1.00
871;DHT22;422;51.280;7.236;2022-07-10T15:26:33;16.80;1.00
871;DHT22;422;51.280;7.236;2022-07-10T15:29:03;17.00;1.00
871;DHT22;422;51.280;7.236;2022-07-10T15:31:37;17.10;1.00
871;DHT22;422;51.280;7.236;2022-07-10T15:34:10;17.20;1.00
871;DHT22;422;51.280;7.236;2022-07-10T15:36:46;17.30;1.00
871;DHT22;422;51.280;7.236;2022-07-10T15:39:14;17.50;1.00
871;DHT22;422;51.280;7.236;2022-07-10T15:41:45;18.00;1.00
871;DHT22;422;51.280;7.236;2022-07-10T15:44:16;18.30;1.00
871;DHT22;422;51.280;7.236;2022-07-10T15:46:47;18.50;99.90
871;DHT22;422;51.280;7.236;2022-07-10T15:49:14;18.80;99.90
871;DHT22;422;51.280;7.236;2022-07-10T15:51:45;18.50;99.90
871;DHT22;422;51.280;7.236;2022-07-10T15:54:18;18.50;99.90
871;DHT22;422;51.280;7.236;2022-07-10T15:56:45;18.60;99.90
871;DHT22;422;51.280;7.236;2022-07-10T15:59:12;18.80;99.90
871;DHT22;422;51.280;7.236;2022-07-10T16:01:39;18.70;99.90
871;DHT22;422;51.280;7.236;2022-07-10T16:04:12;18.60;99.90
871;DHT22;422;51.280;7.236;2022-07-10T16:06:39;18.70;99.90
871;DHT22;422;51.280;7.236;2022-07-10T16:09:10;18.60;99.90
871;DHT22;422;51.280;7.236;2022-07-10T16:11:40;18.60;99.90
871;DHT22;422;51.280;7.236;2022-07-10T16:14:10;18.60;99.90
871;DHT22;422;51.280;7.236;2022-07-10T16:16:39;18.60;99.90
871;DHT22;422;51.280;7.236;2022-07-10T16:19:09;18.70;99.90
871;DHT22;422;51.280;7.236;2022-07-10T16:21:42;18.80;99.90
871;DHT22;422;51.280;7.236;2022-07-10T16:24:12;18.80;99.90
871;DHT22;422;51.280;7.236;2022-07-10T16:26:41;19.00;99.90
871;DHT22;422;51.280;7.236;2022-07-10T16:29:08;19.00;99.90
871;DHT22;422;51.280;7.236;2022-07-10T16:31:39;18.80;99.90
871;DHT22;422;51.280;7.236;2022-07-10T16:34:10;18.70;99.90
871;DHT22;422;51.280;7.236;2022-07-10T16:36:40;18.60;99.90
871;DHT22;422;51.280;7.236;2022-07-10T16:39:08;18.50;99.90
871;DHT22;422;51.280;7.236;2022-07-10T16:41:36;18.40;99.90
871;DHT22;422;51.280;7.236;2022-07-10T16:44:05;18.20;99.90
871;DHT22;422;51.280;7.236;2022-07-10T16:46:32;18.20;99.90
871;DHT22;422;51.280;7.236;2022-07-10T16:49:01;18.20;99.90
871;DHT22;422;51.280;7.236;2022-07-10T16:51:30;18.10;99.90
871;DHT22;422;51.280;7.236;2022-07-10T16:54:01;17.90;99.90
871;DHT22;422;51.280;7.236;2022-07-10T16:56:31;17.90;99.90
871;DHT22;422;51.280;7.236;2022-07-10T16:58:58;17.90;99.90
871;DHT22;422;51.280;7.236;2022-07-10T17:01:26;18.00;99.90